createdAt,value
2022-10-04T00:00:16.681Z,0.70
2022-10-04T00:01:18.960Z,0.69
2022-10-04T00:02:21.867Z,0.57
2022-10-04T00:03:23.691Z,0.56
2022-10-04T00:04:25.570Z,0.76
2022-10-04T00:05:27.413Z,0.98
2022-10-04T00:06:29.649Z,0.52
2022-10-04T00:07:31.482Z,0.65
2022-10-04T00:08:33.325Z,0.60
2022-10-04T00:09:35.201Z,0.67
2022-10-04T00:10:37.129Z,0.68
2022-10-04T00:11:39.069Z,0.66
2022-10-04T00:12:41.101Z,0.76
2022-10-04T00:13:43.205Z,0.60
2022-10-04T00:14:45.071Z,0.59
2022-10-04T00:15:47.056Z,0.53
2022-10-04T00:16:48.947Z,0.64
2022-10-04T00:17:50.784Z,0.56
2022-10-04T00:18:52.634Z,0.75
2022-10-04T00:19:54.479Z,0.62
2022-10-04T00:20:56.305Z,0.68
2022-10-04T00:21:58.144Z,0.69
2022-10-04T00:22:59.973Z,0.50
2022-10-04T00:24:01.813Z,0.67
2022-10-04T00:25:03.672Z,0.61
2022-10-04T00:26:06.021Z,0.65
2022-10-04T00:27:07.857Z,0.60
2022-10-04T00:28:09.753Z,0.60
2022-10-04T00:29:11.647Z,0.60
2022-10-04T00:30:13.954Z,0.50
2022-10-04T00:31:15.843Z,0.74
2022-10-04T00:32:17.703Z,0.64
2022-10-04T00:33:19.528Z,0.84
2022-10-04T00:34:21.371Z,0.49
2022-10-04T00:35:23.257Z,0.61
2022-10-04T00:36:25.294Z,0.57
2022-10-04T00:37:27.234Z,0.49
2022-10-04T00:38:29.073Z,0.69
2022-10-04T00:39:30.908Z,0.62
2022-10-04T00:40:32.906Z,0.56
2022-10-04T00:41:34.742Z,0.59
2022-10-04T00:42:36.565Z,0.59
2022-10-04T00:43:38.388Z,0.77
2022-10-04T00:44:40.312Z,0.48
2022-10-04T00:45:42.187Z,0.49
2022-10-04T00:46:44.137Z,0.70
2022-10-04T00:47:45.976Z,0.65
2022-10-04T00:48:47.815Z,0.47
2022-10-04T00:49:49.662Z,0.55
2022-10-04T00:50:51.734Z,0.51
2022-10-04T00:51:53.554Z,0.73
2022-10-04T00:52:55.400Z,0.50
2022-10-04T00:53:57.241Z,0.66
2022-10-04T00:54:59.066Z,0.67
2022-10-04T00:56:00.940Z,0.63
2022-10-04T00:57:02.796Z,0.58
2022-10-04T00:58:04.626Z,0.51
2022-10-04T00:59:06.455Z,0.57
2022-10-04T01:00:08.477Z,0.69
2022-10-04T01:01:11.186Z,0.65
2022-10-04T01:02:13.206Z,0.61
2022-10-04T01:03:15.033Z,0.50
2022-10-04T01:04:16.883Z,0.63
2022-10-04T01:05:18.709Z,0.51
2022-10-04T01:06:20.573Z,0.60
2022-10-04T01:07:22.457Z,0.83
2022-10-04T01:08:24.300Z,0.65
2022-10-04T01:09:26.113Z,0.73
2022-10-04T01:10:28.047Z,0.62
2022-10-04T01:11:29.899Z,0.59
2022-10-04T01:12:31.733Z,0.60
2022-10-04T01:13:33.705Z,0.71
2022-10-04T01:14:35.511Z,0.60
2022-10-04T01:15:37.455Z,0.70
2022-10-04T01:16:39.588Z,0.73
2022-10-04T01:17:41.407Z,0.60
2022-10-04T01:18:43.230Z,0.62
2022-10-04T01:19:45.081Z,0.59
2022-10-04T01:20:47.016Z,0.72
2022-10-04T01:21:48.890Z,0.76
2022-10-04T01:22:50.713Z,1.07
2022-10-04T01:23:52.566Z,3.78
2022-10-04T01:24:54.402Z,4.49
2022-10-04T01:25:56.252Z,3.29
2022-10-04T01:26:58.204Z,3.55
2022-10-04T01:28:00.056Z,5.92
2022-10-04T01:29:01.926Z,9.35
2022-10-04T01:30:03.827Z,3.35
2022-10-04T01:31:05.688Z,1.67
2022-10-04T01:32:07.523Z,1.27
2022-10-04T01:33:09.327Z,1.00
2022-10-04T01:34:11.131Z,0.60
2022-10-04T01:35:12.931Z,0.73
2022-10-04T01:36:14.960Z,0.76
2022-10-04T01:37:16.788Z,0.70
2022-10-04T01:38:18.580Z,0.64
2022-10-04T01:39:20.377Z,0.67
2022-10-04T01:40:22.206Z,0.75
2022-10-04T01:41:24.011Z,0.70
2022-10-04T01:42:25.834Z,0.56
2022-10-04T01:43:27.630Z,0.54
2022-10-04T01:44:29.437Z,0.61
2022-10-04T01:45:31.265Z,0.79
2022-10-04T01:46:33.340Z,0.58
2022-10-04T01:47:35.234Z,0.68
2022-10-04T01:48:37.067Z,0.60
2022-10-04T01:49:38.848Z,0.79
2022-10-04T01:50:40.748Z,0.85
2022-10-04T01:51:42.799Z,0.78
2022-10-04T01:52:44.805Z,0.64
2022-10-04T01:53:46.614Z,0.63
2022-10-04T01:54:48.414Z,0.82
2022-10-04T01:55:50.215Z,0.59
2022-10-04T01:56:52.032Z,0.82
2022-10-04T01:57:53.869Z,0.71
2022-10-04T01:58:55.683Z,0.64
2022-10-04T01:59:57.493Z,0.80
2022-10-04T02:00:59.344Z,0.77
2022-10-04T02:02:01.360Z,0.81
2022-10-04T02:03:05.000Z,0.80
2022-10-04T02:04:06.991Z,0.71
2022-10-04T02:05:08.892Z,0.85
2022-10-04T02:06:11.524Z,0.76
2022-10-04T02:07:13.321Z,0.62
2022-10-04T02:08:15.174Z,0.83
2022-10-04T02:09:16.984Z,0.64
2022-10-04T02:10:18.996Z,0.64
2022-10-04T02:11:20.818Z,0.88
2022-10-04T02:12:22.610Z,0.71
2022-10-04T02:13:24.483Z,0.75
2022-10-04T02:14:26.276Z,0.52
2022-10-04T02:15:28.077Z,0.50
2022-10-04T02:16:30.020Z,0.54
2022-10-04T02:17:32.024Z,0.55
2022-10-04T02:18:33.856Z,0.46
2022-10-04T02:19:35.680Z,0.62
2022-10-04T02:20:37.481Z,0.63
2022-10-04T02:21:39.828Z,0.70
2022-10-04T02:22:41.790Z,0.67
2022-10-04T02:23:43.649Z,0.59
2022-10-04T02:24:45.466Z,0.52
2022-10-04T02:25:47.282Z,0.61
2022-10-04T02:26:49.090Z,0.60
2022-10-04T02:27:50.953Z,0.57
2022-10-04T02:28:52.850Z,0.61
2022-10-04T02:29:54.667Z,0.50
2022-10-04T02:30:56.613Z,0.65
2022-10-04T02:31:58.372Z,0.89
2022-10-04T02:33:00.208Z,0.70
2022-10-04T02:34:02.070Z,0.71
2022-10-04T02:35:03.840Z,0.69
2022-10-04T02:36:05.739Z,0.66
2022-10-04T02:37:07.546Z,0.60
2022-10-04T02:38:09.346Z,0.59
2022-10-04T02:39:11.192Z,0.61
2022-10-04T02:40:13.914Z,0.74
2022-10-04T02:41:16.211Z,0.63
2022-10-04T02:42:17.916Z,0.60
2022-10-04T02:43:19.723Z,0.57
2022-10-04T02:44:21.553Z,0.63
2022-10-04T02:45:23.385Z,0.73
2022-10-04T02:46:25.646Z,0.64
2022-10-04T02:47:27.593Z,0.60
2022-10-04T02:48:29.480Z,0.60
2022-10-04T02:49:31.328Z,0.64
2022-10-04T02:50:33.042Z,0.60
2022-10-04T02:51:34.833Z,0.60
2022-10-04T02:52:36.641Z,0.71
2022-10-04T02:53:38.447Z,0.83
2022-10-04T02:54:40.281Z,0.73
2022-10-04T02:55:42.103Z,1.27
2022-10-04T02:56:43.998Z,2.33
2022-10-04T02:57:45.821Z,3.07
2022-10-04T02:58:47.628Z,3.33
2022-10-04T02:59:49.475Z,2.24
2022-10-04T03:00:51.413Z,1.37
2022-10-04T03:01:53.334Z,1.22
2022-10-04T03:02:55.223Z,1.35
2022-10-04T03:03:57.505Z,0.83
2022-10-04T03:04:59.351Z,0.91
2022-10-04T03:06:01.160Z,0.94
2022-10-04T03:07:02.964Z,1.03
2022-10-04T03:08:04.767Z,0.83
2022-10-04T03:09:06.790Z,1.20
2022-10-04T03:10:08.833Z,1.07
2022-10-04T03:11:10.900Z,0.91
2022-10-04T03:12:12.708Z,0.72
2022-10-04T03:13:14.408Z,1.04
2022-10-04T03:14:16.217Z,0.71
2022-10-04T03:15:18.074Z,0.80
2022-10-04T03:16:19.940Z,0.81
2022-10-04T03:17:21.667Z,0.83
2022-10-04T03:18:23.500Z,0.94
2022-10-04T03:19:25.386Z,0.95
2022-10-04T03:20:27.434Z,0.85
2022-10-04T03:21:29.240Z,0.79
2022-10-04T03:22:31.057Z,0.80
2022-10-04T03:23:32.864Z,0.86
2022-10-04T03:24:34.677Z,0.80
2022-10-04T03:25:36.542Z,0.90
2022-10-04T03:26:38.734Z,0.82
2022-10-04T03:27:40.544Z,0.78
2022-10-04T03:28:42.581Z,0.65
2022-10-04T03:29:44.381Z,0.78
2022-10-04T03:30:46.223Z,0.95
2022-10-04T03:31:48.121Z,1.09
2022-10-04T03:32:49.937Z,1.64
2022-10-04T03:33:51.736Z,1.47
2022-10-04T03:34:53.562Z,2.67
2022-10-04T03:35:55.412Z,2.16
2022-10-04T03:36:57.221Z,1.73
2022-10-04T03:37:59.035Z,1.44
2022-10-04T03:39:00.831Z,1.10
2022-10-04T03:40:02.653Z,1.29
2022-10-04T03:41:04.553Z,0.89
2022-10-04T03:42:06.369Z,0.90
2022-10-04T03:43:08.190Z,0.91
2022-10-04T03:44:10.023Z,0.94
2022-10-04T03:45:11.865Z,1.79
2022-10-04T03:46:13.898Z,3.46
2022-10-04T03:47:15.684Z,2.72
2022-10-04T03:48:17.529Z,2.31
2022-10-04T03:49:19.368Z,1.50
2022-10-04T03:50:21.267Z,1.90
2022-10-04T03:51:23.144Z,1.33
2022-10-04T03:52:25.022Z,1.87
2022-10-04T03:53:26.858Z,1.66
2022-10-04T03:54:28.681Z,1.48
2022-10-04T03:55:30.537Z,1.45
2022-10-04T03:56:32.435Z,1.33
2022-10-04T03:57:34.253Z,1.27
2022-10-04T03:58:36.072Z,1.41
2022-10-04T03:59:37.952Z,1.81
2022-10-04T04:00:39.758Z,5.13
2022-10-04T04:01:41.889Z,5.25
2022-10-04T04:02:46.265Z,4.08
2022-10-04T04:03:47.542Z,3.46
2022-10-04T04:04:49.384Z,2.94
2022-10-04T04:05:51.249Z,2.76
2022-10-04T04:06:53.124Z,2.10
2022-10-04T04:07:54.970Z,1.71
2022-10-04T04:08:56.804Z,1.51
2022-10-04T04:09:58.641Z,1.77
2022-10-04T04:11:00.471Z,1.61
2022-10-04T04:12:02.322Z,1.40
2022-10-04T04:13:04.170Z,1.36
2022-10-04T04:14:06.003Z,1.54
2022-10-04T04:15:07.826Z,1.59
2022-10-04T04:16:10.156Z,1.23
2022-10-04T04:17:12.053Z,1.79
2022-10-04T04:18:13.885Z,1.78
2022-10-04T04:19:15.722Z,2.25
2022-10-04T04:20:17.800Z,1.79
2022-10-04T04:21:19.653Z,2.03
2022-10-04T04:22:21.511Z,2.07
2022-10-04T04:23:23.406Z,1.89
2022-10-04T04:24:25.173Z,1.74
2022-10-04T04:25:26.978Z,2.44
2022-10-04T04:26:28.803Z,1.94
2022-10-04T04:27:30.672Z,1.92
2022-10-04T04:28:32.619Z,2.13
2022-10-04T04:29:34.570Z,1.71
2022-10-04T04:30:36.382Z,1.69
2022-10-04T04:31:38.274Z,1.30
2022-10-04T04:32:40.209Z,1.76
2022-10-04T04:33:42.014Z,1.80
2022-10-04T04:34:43.836Z,2.14
2022-10-04T04:35:45.685Z,2.18
2022-10-04T04:36:47.559Z,2.81
2022-10-04T04:37:49.414Z,2.85
2022-10-04T04:38:51.237Z,2.98
2022-10-04T04:39:53.077Z,2.31
2022-10-04T04:40:55.121Z,2.17
2022-10-04T04:41:56.958Z,1.89
2022-10-04T04:42:58.811Z,2.01
2022-10-04T04:44:00.644Z,2.85
2022-10-04T04:45:02.467Z,1.96
2022-10-04T04:46:26.179Z,1.87
2022-10-04T04:47:07.939Z,1.40
2022-10-04T04:48:09.807Z,1.41
2022-10-04T04:49:11.654Z,1.44
2022-10-04T04:50:13.582Z,1.20
2022-10-04T04:51:15.517Z,1.23
2022-10-04T04:52:17.364Z,1.30
2022-10-04T04:53:19.234Z,1.35
2022-10-04T04:54:21.078Z,1.29
2022-10-04T04:55:22.879Z,0.91
2022-10-04T04:56:24.718Z,1.27
2022-10-04T04:57:26.550Z,1.11
2022-10-04T04:58:28.394Z,1.01
2022-10-04T04:59:30.250Z,1.00
2022-10-04T05:00:32.055Z,0.82
2022-10-04T05:01:34.025Z,1.18
2022-10-04T05:02:35.899Z,1.03
2022-10-04T05:03:38.373Z,0.90
2022-10-04T05:04:40.203Z,1.23
2022-10-04T05:05:42.056Z,0.94
2022-10-04T05:06:43.984Z,1.05
2022-10-04T05:07:45.838Z,0.80
2022-10-04T05:08:47.700Z,1.32
2022-10-04T05:09:49.505Z,1.23
2022-10-04T05:10:51.332Z,0.89
2022-10-04T05:11:53.161Z,0.87
2022-10-04T05:12:55.009Z,1.09
2022-10-04T05:13:56.868Z,1.00
2022-10-04T05:14:58.715Z,1.03
2022-10-04T05:16:00.574Z,1.34
2022-10-04T05:17:02.379Z,1.67
2022-10-04T05:18:04.205Z,1.43
2022-10-04T05:19:06.081Z,1.81
2022-10-04T05:20:08.228Z,1.81
2022-10-04T05:21:10.054Z,1.14
2022-10-04T05:22:11.888Z,1.39
2022-10-04T05:23:14.753Z,1.27
2022-10-04T05:24:16.633Z,1.23
2022-10-04T05:25:18.475Z,1.09
2022-10-04T05:26:20.817Z,1.04
2022-10-04T05:27:22.641Z,1.12
2022-10-04T05:28:24.565Z,1.32
2022-10-04T05:29:26.426Z,1.51
2022-10-04T05:30:28.263Z,1.31
2022-10-04T05:31:30.133Z,1.26
2022-10-04T05:32:31.891Z,1.09
2022-10-04T05:33:34.031Z,1.16
2022-10-04T05:34:35.891Z,1.11
2022-10-04T05:35:37.734Z,0.90
2022-10-04T05:36:39.672Z,1.25
2022-10-04T05:37:41.507Z,1.35
2022-10-04T05:38:43.363Z,1.26
2022-10-04T05:39:45.241Z,1.17
2022-10-04T05:40:47.094Z,1.10
2022-10-04T05:41:48.925Z,0.95
2022-10-04T05:42:50.761Z,0.99
2022-10-04T05:43:52.591Z,1.13
2022-10-04T05:44:54.468Z,1.11
2022-10-04T05:45:56.369Z,1.20
2022-10-04T05:46:58.164Z,1.19
2022-10-04T05:47:59.989Z,1.36
2022-10-04T05:49:01.801Z,1.37
2022-10-04T05:50:03.781Z,1.38
2022-10-04T05:51:05.633Z,1.28
2022-10-04T05:52:07.431Z,1.45
2022-10-04T05:53:10.609Z,1.26
2022-10-04T05:54:13.156Z,1.31
2022-10-04T05:55:15.017Z,1.14
2022-10-04T05:56:16.979Z,1.49
2022-10-04T05:57:19.068Z,1.50
2022-10-04T05:58:20.905Z,1.57
2022-10-04T05:59:22.774Z,1.64
2022-10-04T06:00:24.737Z,1.68
2022-10-04T06:01:26.640Z,1.79
2022-10-04T06:02:28.561Z,1.68
2022-10-04T06:03:30.615Z,1.69
2022-10-04T06:04:33.645Z,1.47
2022-10-04T06:05:35.899Z,1.86
2022-10-04T06:06:38.019Z,1.60
2022-10-04T06:07:40.940Z,1.42
2022-10-04T06:08:42.835Z,1.60
2022-10-04T06:09:44.743Z,1.93
2022-10-04T06:10:46.680Z,2.02
2022-10-04T06:11:48.506Z,1.91
2022-10-04T06:12:50.331Z,1.71
2022-10-04T06:13:52.130Z,1.86
2022-10-04T06:14:53.935Z,1.59
2022-10-04T06:15:55.792Z,2.10
2022-10-04T06:16:57.768Z,1.94
2022-10-04T06:17:59.591Z,2.04
2022-10-04T06:19:02.606Z,1.95
2022-10-04T06:20:04.500Z,1.76
2022-10-04T06:21:06.347Z,2.16
2022-10-04T06:22:08.172Z,2.20
2022-10-04T06:23:09.971Z,1.97
2022-10-04T06:24:11.789Z,2.37
2022-10-04T06:25:13.621Z,2.35
2022-10-04T06:26:15.717Z,2.35
2022-10-04T06:27:17.534Z,2.06
2022-10-04T06:28:19.407Z,2.15
2022-10-04T06:29:21.250Z,2.41
2022-10-04T06:30:23.060Z,2.03
2022-10-04T06:31:24.913Z,1.91
2022-10-04T06:32:26.732Z,2.12
2022-10-04T06:33:28.571Z,2.12
2022-10-04T06:34:30.376Z,2.05
2022-10-04T06:35:32.178Z,2.03
2022-10-04T06:36:34.150Z,1.97
2022-10-04T06:37:35.969Z,2.14
2022-10-04T06:38:37.827Z,2.10
2022-10-04T06:39:39.647Z,2.07
2022-10-04T06:40:41.755Z,2.09
2022-10-04T06:41:43.947Z,2.01
2022-10-04T06:42:45.909Z,2.07
2022-10-04T06:43:47.706Z,2.15
2022-10-04T06:44:49.513Z,2.11
2022-10-04T06:45:51.353Z,1.87
2022-10-04T06:46:53.165Z,2.25
2022-10-04T06:47:54.976Z,2.65
2022-10-04T06:48:56.776Z,2.41
2022-10-04T06:49:58.596Z,2.02
2022-10-04T06:51:00.502Z,2.11
2022-10-04T06:52:02.381Z,2.44
2022-10-04T06:53:04.185Z,1.91
2022-10-04T06:54:05.990Z,2.03
2022-10-04T06:55:07.800Z,2.11
2022-10-04T06:56:10.711Z,1.86
2022-10-04T06:57:12.559Z,1.78
2022-10-04T06:58:14.463Z,1.49
2022-10-04T06:59:16.258Z,1.59
2022-10-04T07:00:18.080Z,1.50
2022-10-04T07:01:19.926Z,1.59
2022-10-04T07:02:21.787Z,1.57
2022-10-04T07:03:23.647Z,1.37
2022-10-04T07:04:25.470Z,1.27
2022-10-04T07:05:27.274Z,1.33
2022-10-04T07:06:29.490Z,1.47
2022-10-04T07:07:31.231Z,1.46
2022-10-04T07:08:33.046Z,1.32
2022-10-04T07:09:34.888Z,1.58
2022-10-04T07:10:36.787Z,1.32
2022-10-04T07:11:38.633Z,1.51
2022-10-04T07:12:42.987Z,1.26
2022-10-04T07:13:44.845Z,1.34
2022-10-04T07:14:46.648Z,1.65
2022-10-04T07:15:48.438Z,1.53
2022-10-04T07:16:50.280Z,1.41
2022-10-04T07:17:52.143Z,1.79
2022-10-04T07:18:53.948Z,1.47
2022-10-04T07:19:55.758Z,1.57
2022-10-04T07:20:57.573Z,1.60
2022-10-04T07:21:59.369Z,1.68
2022-10-04T07:23:01.221Z,1.42
2022-10-04T07:24:03.046Z,1.83
2022-10-04T07:25:04.868Z,1.54
2022-10-04T07:26:07.078Z,1.71
2022-10-04T07:27:08.979Z,1.69
2022-10-04T07:28:10.940Z,1.95
2022-10-04T07:29:12.790Z,1.67
2022-10-04T07:30:14.719Z,1.51
2022-10-04T07:31:16.587Z,1.65
2022-10-04T07:32:18.451Z,1.61
2022-10-04T07:33:20.287Z,1.63
2022-10-04T07:34:22.113Z,1.92
2022-10-04T07:35:23.948Z,1.87
2022-10-04T07:36:25.878Z,1.63
2022-10-04T07:37:27.663Z,1.73
2022-10-04T07:38:29.536Z,1.47
2022-10-04T07:39:31.334Z,1.57
2022-10-04T07:40:33.159Z,1.75
2022-10-04T07:41:34.968Z,1.60
2022-10-04T07:42:36.845Z,1.93
2022-10-04T07:43:38.686Z,1.77
2022-10-04T07:44:40.511Z,1.95
2022-10-04T07:45:42.360Z,1.85
2022-10-04T07:46:44.115Z,1.73
2022-10-04T07:47:45.931Z,1.99
2022-10-04T07:48:47.766Z,1.53
2022-10-04T07:49:49.593Z,1.54
2022-10-04T07:50:51.502Z,2.78
2022-10-04T07:51:53.315Z,3.33
2022-10-04T07:52:55.111Z,3.57
2022-10-04T07:53:56.976Z,3.66
2022-10-04T07:54:58.804Z,3.29
2022-10-04T07:56:00.594Z,2.96
2022-10-04T07:57:02.427Z,2.34
2022-10-04T07:58:04.228Z,2.75
2022-10-04T07:59:06.072Z,1.85
2022-10-04T08:00:08.286Z,2.89
2022-10-04T08:01:10.180Z,2.54
2022-10-04T08:02:12.230Z,2.66
2022-10-04T08:03:14.236Z,2.46
2022-10-04T08:04:16.076Z,2.46
2022-10-04T08:05:17.915Z,2.85
2022-10-04T08:06:19.743Z,2.83
2022-10-04T08:07:21.560Z,2.40
2022-10-04T08:08:23.402Z,1.99
2022-10-04T08:09:25.270Z,1.91
2022-10-04T08:10:27.102Z,1.51
2022-10-04T08:11:28.945Z,1.83
2022-10-04T08:12:30.766Z,1.59
2022-10-04T08:13:32.615Z,1.75
2022-10-04T08:14:34.492Z,1.56
2022-10-04T08:15:36.409Z,1.60
2022-10-04T08:16:38.463Z,1.71
2022-10-04T08:17:41.566Z,1.54
2022-10-04T08:18:43.364Z,1.62
2022-10-04T08:19:45.256Z,1.37
2022-10-04T08:20:47.102Z,1.63
2022-10-04T08:21:49.241Z,1.55
2022-10-04T08:22:51.089Z,1.87
2022-10-04T08:23:52.949Z,1.78
2022-10-04T08:24:54.808Z,1.60
2022-10-04T08:25:56.688Z,1.70
2022-10-04T08:26:58.526Z,1.62
2022-10-04T08:28:00.372Z,1.63
2022-10-04T08:29:02.251Z,1.72
2022-10-04T08:30:04.131Z,1.71
2022-10-04T08:31:06.005Z,1.61
2022-10-04T08:32:07.789Z,1.88
2022-10-04T08:33:09.618Z,1.47
2022-10-04T08:34:11.469Z,1.56
2022-10-04T08:35:13.343Z,1.51
2022-10-04T08:36:15.188Z,1.39
2022-10-04T08:37:17.031Z,1.61
2022-10-04T08:38:18.878Z,1.74
2022-10-04T08:39:20.708Z,1.51
2022-10-04T08:40:22.579Z,1.82
2022-10-04T08:41:24.536Z,1.82
2022-10-04T08:42:26.360Z,1.86
2022-10-04T08:43:28.209Z,1.54
2022-10-04T08:44:30.154Z,1.61
2022-10-04T08:45:32.030Z,1.97
2022-10-04T08:46:34.123Z,1.83
2022-10-04T08:47:36.109Z,2.05
2022-10-04T08:48:37.949Z,2.01
2022-10-04T08:49:39.807Z,2.39
2022-10-04T08:50:41.671Z,2.05
2022-10-04T08:51:43.522Z,2.25
2022-10-04T08:52:45.359Z,1.93
2022-10-04T08:53:47.202Z,1.91
2022-10-04T08:54:49.033Z,1.83
2022-10-04T08:55:51.908Z,1.81
2022-10-04T08:56:54.171Z,1.87
2022-10-04T08:57:55.985Z,1.84
2022-10-04T08:58:57.837Z,1.58
2022-10-04T08:59:59.761Z,1.55
2022-10-04T09:01:03.495Z,1.61
2022-10-04T09:02:05.311Z,2.06
2022-10-04T09:03:08.998Z,1.77
2022-10-04T09:04:10.789Z,1.80
2022-10-04T09:05:12.646Z,1.99
2022-10-04T09:06:15.877Z,2.03
2022-10-04T09:07:17.845Z,2.21
2022-10-04T09:08:19.695Z,1.83
2022-10-04T09:09:24.716Z,2.14
2022-10-04T09:10:26.518Z,1.82
2022-10-04T09:11:28.403Z,1.86
2022-10-04T09:12:30.244Z,1.89
2022-10-04T09:13:34.407Z,1.73
2022-10-04T09:14:36.284Z,1.91
2022-10-04T09:15:42.227Z,1.69
2022-10-04T09:16:45.623Z,1.86
2022-10-04T09:17:47.761Z,1.84
2022-10-04T09:18:49.626Z,1.64
2022-10-04T09:19:52.574Z,1.51
2022-10-04T09:20:56.227Z,1.67
2022-10-04T09:21:58.115Z,1.55
2022-10-04T09:23:06.284Z,1.94
2022-10-04T09:24:08.186Z,1.40
2022-10-04T09:25:10.017Z,1.41
2022-10-04T09:26:11.969Z,1.45
2022-10-04T09:27:17.347Z,1.32
2022-10-04T09:28:17.621Z,1.56
2022-10-04T09:29:19.539Z,1.37
2022-10-04T09:30:21.405Z,1.35
2022-10-04T09:31:23.349Z,1.50
2022-10-04T09:32:25.359Z,1.39
2022-10-04T09:33:27.185Z,1.71
2022-10-04T09:34:30.800Z,1.67
2022-10-04T09:35:32.713Z,1.40
2022-10-04T09:36:34.649Z,1.63
2022-10-04T09:37:36.528Z,1.32
2022-10-04T09:38:38.337Z,1.12
2022-10-04T09:39:40.165Z,1.19
2022-10-04T09:40:46.511Z,1.31
2022-10-04T09:41:45.983Z,1.12
2022-10-04T09:42:48.267Z,1.16
2022-10-04T09:43:50.110Z,1.13
2022-10-04T09:44:51.959Z,1.24
2022-10-04T09:45:56.161Z,1.13
2022-10-04T09:46:58.335Z,1.18
2022-10-04T09:48:00.171Z,1.19
2022-10-04T09:49:02.002Z,1.33
2022-10-04T09:50:04.246Z,1.11
2022-10-04T09:51:06.096Z,1.05
2022-10-04T09:52:07.937Z,1.17
2022-10-04T09:53:10.022Z,1.01
2022-10-04T09:54:11.851Z,1.13
2022-10-04T09:56:34.908Z,0.98
2022-10-04T09:57:36.751Z,1.09
2022-10-04T09:58:38.631Z,0.87
2022-10-04T09:59:40.490Z,1.04
2022-10-04T10:00:42.668Z,0.93
2022-10-04T10:01:44.615Z,1.00
2022-10-04T10:02:47.284Z,1.00
2022-10-04T10:03:49.284Z,0.84
2022-10-04T10:04:51.178Z,0.90
2022-10-04T10:05:53.002Z,0.94
2022-10-04T10:06:55.239Z,1.01
2022-10-04T10:07:57.094Z,0.74
2022-10-04T10:08:58.944Z,0.87
2022-10-04T10:10:00.770Z,0.94
2022-10-04T10:11:02.625Z,0.68
2022-10-04T10:12:04.462Z,0.60
2022-10-04T10:13:06.289Z,0.89
2022-10-04T10:14:08.149Z,0.72
2022-10-04T10:15:09.992Z,0.81
2022-10-04T10:16:12.106Z,0.76
2022-10-04T10:17:13.942Z,0.59
2022-10-04T10:18:15.792Z,0.79
2022-10-04T10:19:17.639Z,0.70
2022-10-04T10:20:19.641Z,0.83
2022-10-04T10:21:21.742Z,0.85
2022-10-04T10:22:23.544Z,0.89
2022-10-04T10:23:25.348Z,0.83
2022-10-04T10:24:27.199Z,0.81
2022-10-04T10:25:29.004Z,0.68
2022-10-04T10:26:30.825Z,0.73
2022-10-04T10:27:32.610Z,0.81
2022-10-04T10:28:34.455Z,0.95
2022-10-04T10:29:36.374Z,0.97
2022-10-04T10:30:38.294Z,0.90
2022-10-04T10:31:41.284Z,0.78
2022-10-04T10:32:43.626Z,1.07
2022-10-04T10:33:45.598Z,0.89
2022-10-04T10:34:47.451Z,0.92
2022-10-04T10:35:49.260Z,0.85
2022-10-04T10:36:51.062Z,0.62
2022-10-04T10:37:52.857Z,0.79
2022-10-04T10:38:54.674Z,0.60
2022-10-04T10:39:56.518Z,0.67
2022-10-04T10:40:58.299Z,0.91
2022-10-04T10:42:01.214Z,0.72
2022-10-04T10:49:12.349Z,0.49
2022-10-04T10:50:14.586Z,0.60
2022-10-04T10:51:16.414Z,0.50
2022-10-04T10:52:18.258Z,0.63
2022-10-04T10:53:20.038Z,0.53
2022-10-04T10:54:22.750Z,0.60
2022-10-04T10:55:24.580Z,0.53
2022-10-04T10:56:30.082Z,0.60
2022-10-04T10:57:30.022Z,0.50
2022-10-04T10:58:31.825Z,0.66
2022-10-04T10:59:33.667Z,0.77
2022-10-04T11:00:35.683Z,0.47
2022-10-04T11:01:37.629Z,0.74
2022-10-04T11:02:49.244Z,0.80
2022-10-04T11:03:43.398Z,0.62
2022-10-04T11:04:45.356Z,0.57
2022-10-04T11:05:47.289Z,0.57
2022-10-04T11:06:49.197Z,0.59
2022-10-04T11:07:50.987Z,0.69
2022-10-04T11:08:52.806Z,0.56
2022-10-04T11:09:54.657Z,0.59
2022-10-04T11:10:56.517Z,0.73
2022-10-04T11:11:58.410Z,0.53
2022-10-04T11:13:01.314Z,0.62
2022-10-04T11:14:03.158Z,0.51
2022-10-04T11:15:05.009Z,0.76
2022-10-04T11:16:06.863Z,0.50
2022-10-04T11:17:09.199Z,0.73
2022-10-04T11:18:11.040Z,0.60
2022-10-04T11:19:12.905Z,0.54
2022-10-04T11:20:15.069Z,0.63
2022-10-04T11:21:16.894Z,0.51
2022-10-04T11:22:18.697Z,0.64
2022-10-04T11:23:20.499Z,0.48
2022-10-04T11:24:22.327Z,0.53
2022-10-04T11:25:24.197Z,0.40
2022-10-04T11:26:26.085Z,0.61
2022-10-04T11:27:27.902Z,0.58
2022-10-04T11:28:29.813Z,0.59
2022-10-04T11:29:31.719Z,0.50
2022-10-04T11:30:33.836Z,0.74
2022-10-04T11:31:35.661Z,0.71
2022-10-04T11:32:37.429Z,0.74
2022-10-04T11:33:39.252Z,0.71
2022-10-04T11:34:41.069Z,0.56
2022-10-04T11:35:42.913Z,0.71
2022-10-04T11:36:45.182Z,0.60
2022-10-04T11:37:47.219Z,0.47
2022-10-04T11:38:49.043Z,0.53
2022-10-04T11:39:50.842Z,0.70
2022-10-04T11:40:52.789Z,0.73
2022-10-04T11:41:54.598Z,0.73
2022-10-04T11:42:56.440Z,0.70
2022-10-04T11:43:58.266Z,0.74
2022-10-04T11:45:00.073Z,0.70
2022-10-04T11:46:01.908Z,0.71
2022-10-04T11:47:03.819Z,0.60
2022-10-04T11:48:05.624Z,0.67
2022-10-04T11:49:07.426Z,0.53
2022-10-04T11:50:10.564Z,0.50
2022-10-04T11:51:12.434Z,0.81
2022-10-04T11:52:14.321Z,0.89
2022-10-04T11:53:16.170Z,0.72
2022-10-04T11:54:18.006Z,0.64
2022-10-04T11:55:19.830Z,0.61
2022-10-04T11:56:21.813Z,0.61
2022-10-04T11:57:23.662Z,0.77
2022-10-04T11:58:25.492Z,0.73
2022-10-04T11:59:27.324Z,0.86
2022-10-04T12:00:29.141Z,0.80
2022-10-04T12:01:31.216Z,0.77
2022-10-04T12:02:33.057Z,0.80
2022-10-04T12:03:34.928Z,1.01
2022-10-04T12:04:36.899Z,0.88
2022-10-04T12:05:38.748Z,1.03
2022-10-04T12:06:40.831Z,1.15
2022-10-04T12:07:42.688Z,0.97
2022-10-04T12:08:44.538Z,2.45
2022-10-04T12:09:46.373Z,2.34
2022-10-04T12:10:48.309Z,1.86
2022-10-04T12:11:50.190Z,1.23
2022-10-04T12:12:52.029Z,1.13
2022-10-04T12:13:53.875Z,1.16
2022-10-04T12:14:55.695Z,1.09
2022-10-04T12:15:57.564Z,1.08
2022-10-04T12:16:59.609Z,1.35
2022-10-04T12:18:01.450Z,1.45
2022-10-04T12:19:03.286Z,1.21
2022-10-04T12:20:11.855Z,1.28
2022-10-04T12:21:10.575Z,1.09
2022-10-04T12:22:12.435Z,1.01
2022-10-04T12:23:14.293Z,0.94
2022-10-04T12:24:16.128Z,0.79
2022-10-04T12:25:17.960Z,0.75
2022-10-04T12:26:20.105Z,1.03
2022-10-04T12:27:22.798Z,1.07
2022-10-04T12:28:24.694Z,0.87
2022-10-04T12:29:26.582Z,0.70
2022-10-04T12:30:28.425Z,0.80
2022-10-04T12:31:30.302Z,1.39
2022-10-04T12:32:32.091Z,0.95
2022-10-04T12:33:33.894Z,1.24
2022-10-04T12:34:35.696Z,1.41
2022-10-04T12:35:37.508Z,1.41
2022-10-04T12:36:39.427Z,1.32
2022-10-04T12:37:41.436Z,1.13
2022-10-04T12:38:43.262Z,0.84
2022-10-04T12:39:45.099Z,1.01
2022-10-04T12:40:47.007Z,0.87
2022-10-04T12:41:48.815Z,0.85
2022-10-04T12:42:50.661Z,0.69
2022-10-04T12:43:52.477Z,0.81
2022-10-04T12:44:54.286Z,0.90
2022-10-04T12:45:56.202Z,0.77
2022-10-04T12:46:58.403Z,0.97
2022-10-04T12:48:00.249Z,1.05
2022-10-04T12:49:02.062Z,0.89
2022-10-04T12:50:03.976Z,1.11
2022-10-04T12:51:05.786Z,7.73
2022-10-04T12:52:07.595Z,5.62
2022-10-04T12:53:09.435Z,5.48
2022-10-04T12:54:11.260Z,3.87
2022-10-04T12:55:13.077Z,2.67
2022-10-04T12:56:15.101Z,1.59
2022-10-04T12:57:16.894Z,2.04
2022-10-04T12:58:21.143Z,1.43
2022-10-04T12:59:22.993Z,1.32
2022-10-04T13:00:24.889Z,1.13
2022-10-04T13:01:26.872Z,1.13
2022-10-04T13:02:28.832Z,0.97
2022-10-04T13:03:30.740Z,0.89
2022-10-04T13:04:32.571Z,0.90
2022-10-04T13:05:34.378Z,1.00
2022-10-04T13:06:38.906Z,1.32
2022-10-04T13:07:39.901Z,1.00
2022-10-04T13:08:41.770Z,0.88
2022-10-04T13:09:59.849Z,1.36
2022-10-04T13:11:08.038Z,1.41
2022-10-04T13:12:09.827Z,1.25
2022-10-04T13:13:11.635Z,0.99
2022-10-04T13:14:13.473Z,1.16
2022-10-04T13:15:15.283Z,0.84
2022-10-04T13:17:30.217Z,0.71
2022-10-04T13:18:24.374Z,0.72
2022-10-04T13:19:26.210Z,1.03
2022-10-04T13:20:28.017Z,0.71
2022-10-04T13:21:29.841Z,0.94
2022-10-04T13:22:55.404Z,0.91
2022-10-04T13:23:35.262Z,0.91
2022-10-04T13:24:37.134Z,0.91
2022-10-04T13:25:38.972Z,0.90
2022-10-04T13:26:40.888Z,0.96
2022-10-04T13:27:42.679Z,0.80
2022-10-04T13:28:44.483Z,0.73
2022-10-04T13:29:46.342Z,0.75
2022-10-04T13:30:48.382Z,1.11
2022-10-04T13:31:50.825Z,0.73
2022-10-04T13:32:52.719Z,1.03
2022-10-04T13:33:54.535Z,0.99
2022-10-04T13:34:56.400Z,1.03
2022-10-04T13:35:58.206Z,1.00
2022-10-04T13:37:00.117Z,1.15
2022-10-04T13:38:01.923Z,0.87
2022-10-04T13:39:03.825Z,0.89
2022-10-04T13:40:05.984Z,1.10
2022-10-04T13:41:07.831Z,1.07
2022-10-04T13:42:12.447Z,1.19
2022-10-04T13:43:13.282Z,0.97
2022-10-04T13:44:15.065Z,1.04
2022-10-04T13:45:16.820Z,1.26
2022-10-04T13:46:18.969Z,1.10
2022-10-04T13:47:20.928Z,1.09
2022-10-04T13:48:22.742Z,1.00
2022-10-04T13:49:24.547Z,1.24
2022-10-04T13:50:26.495Z,1.26
2022-10-04T13:51:28.315Z,1.06
2022-10-04T13:52:30.102Z,0.96
2022-10-04T13:53:31.899Z,0.99